sensor_id;sensor_type;location;lat;lon;timestamp;P1;durP1;ratioP1;P2;durP2;ratioP2
65896;SDS011;52677;50.898;10.854;2024-01-11T00:01:03;63.55;;;24.90;;
65896;SDS011;52677;50.898;10.854;2024-01-11T00:03:04;59.00;;;25.63;;
65896;SDS011;52677;50.898;10.854;2024-01-11T00:05:04;65.85;;;26.20;;
65896;SDS011;52677;50.898;10.854;2024-01-11T00:07:06;67.07;;;25.23;;
65896;SDS011;52677;50.898;10.854;2024-01-11T00:09:06;72.93;;;24.73;;
65896;SDS011;52677;50.898;10.854;2024-01-11T00:11:07;64.85;;;26.55;;
65896;SDS011;52677;50.898;10.854;2024-01-11T00:13:07;68.70;;;25.65;;
65896;SDS011;52677;50.898;10.854;2024-01-11T00:15:07;62.15;;;25.40;;
65896;SDS011;52677;50.898;10.854;2024-01-11T00:17:08;66.75;;;24.20;;
65896;SDS011;52677;50.898;10.854;2024-01-11T00:19:08;60.42;;;24.45;;
65896;SDS011;52677;50.898;10.854;2024-01-11T00:21:09;62.42;;;24.52;;
65896;SDS011;52677;50.898;10.854;2024-01-11T00:23:09;61.22;;;24.33;;
65896;SDS011;52677;50.898;10.854;2024-01-11T00:25:09;68.70;;;25.90;;
65896;SDS011;52677;50.898;10.854;2024-01-11T00:27:10;60.53;;;24.65;;
65896;SDS011;52677;50.898;10.854;2024-01-11T00:29:10;53.90;;;22.45;;
65896;SDS011;52677;50.898;10.854;2024-01-11T00:31:10;59.95;;;24.15;;
65896;SDS011;52677;50.898;10.854;2024-01-11T00:33:11;67.60;;;25.50;;
65896;SDS011;52677;50.898;10.854;2024-01-11T00:35:11;69.32;;;25.67;;
65896;SDS011;52677;50.898;10.854;2024-01-11T00:37:11;60.17;;;26.23;;
65896;SDS011;52677;50.898;10.854;2024-01-11T00:39:12;66.80;;;26.90;;
65896;SDS011;52677;50.898;10.854;2024-01-11T00:41:12;70.35;;;25.40;;
65896;SDS011;52677;50.898;10.854;2024-01-11T00:43:12;69.70;;;25.95;;
65896;SDS011;52677;50.898;10.854;2024-01-11T00:45:13;70.22;;;24.77;;
65896;SDS011;52677;50.898;10.854;2024-01-11T00:47:13;64.55;;;24.48;;
65896;SDS011;52677;50.898;10.854;2024-01-11T00:49:13;65.68;;;24.85;;
65896;SDS011;52677;50.898;10.854;2024-01-11T00:51:14;70.50;;;25.25;;
65896;SDS011;52677;50.898;10.854;2024-01-11T00:53:15;60.75;;;23.27;;
65896;SDS011;52677;50.898;10.854;2024-01-11T00:55:16;67.10;;;24.80;;
65896;SDS011;52677;50.898;10.854;2024-01-11T00:57:17;66.90;;;25.23;;
65896;SDS011;52677;50.898;10.854;2024-01-11T00:59:17;64.03;;;25.50;;
65896;SDS011;52677;50.898;10.854;2024-01-11T01:01:17;62.90;;;25.10;;
65896;SDS011;52677;50.898;10.854;2024-01-11T01:03:18;75.53;;;26.58;;
65896;SDS011;52677;50.898;10.854;2024-01-11T01:05:19;61.50;;;23.98;;
65896;SDS011;52677;50.898;10.854;2024-01-11T01:07:20;66.22;;;25.40;;
65896;SDS011;52677;50.898;10.854;2024-01-11T01:09:20;63.17;;;25.38;;
65896;SDS011;52677;50.898;10.854;2024-01-11T01:11:20;55.95;;;22.00;;
65896;SDS011;52677;50.898;10.854;2024-01-11T01:13:20;70.30;;;26.02;;
65896;SDS011;52677;50.898;10.854;2024-01-11T01:15:21;54.33;;;22.00;;
65896;SDS011;52677;50.898;10.854;2024-01-11T01:17:22;60.97;;;24.08;;
65896;SDS011;52677;50.898;10.854;2024-01-11T01:19:22;58.33;;;22.52;;
65896;SDS011;52677;50.898;10.854;2024-01-11T01:21:22;76.20;;;25.33;;
65896;SDS011;52677;50.898;10.854;2024-01-11T01:23:23;58.40;;;23.90;;
65896;SDS011;52677;50.898;10.854;2024-01-11T01:25:23;60.10;;;22.58;;
65896;SDS011;52677;50.898;10.854;2024-01-11T01:27:23;54.38;;;23.50;;
65896;SDS011;52677;50.898;10.854;2024-01-11T01:29:24;59.72;;;23.42;;
65896;SDS011;52677;50.898;10.854;2024-01-11T01:31:24;53.75;;;24.02;;
65896;SDS011;52677;50.898;10.854;2024-01-11T01:33:25;59.45;;;23.48;;
65896;SDS011;52677;50.898;10.854;2024-01-11T01:35:25;57.30;;;21.33;;
65896;SDS011;52677;50.898;10.854;2024-01-11T01:37:25;58.25;;;23.90;;
65896;SDS011;52677;50.898;10.854;2024-01-11T01:39:26;58.80;;;24.35;;
65896;SDS011;52677;50.898;10.854;2024-01-11T01:41:26;65.07;;;24.27;;
65896;SDS011;52677;50.898;10.854;2024-01-11T01:43:26;59.88;;;22.02;;
65896;SDS011;52677;50.898;10.854;2024-01-11T01:45:27;64.30;;;24.88;;
65896;SDS011;52677;50.898;10.854;2024-01-11T01:47:27;63.58;;;21.50;;
65896;SDS011;52677;50.898;10.854;2024-01-11T01:49:28;59.58;;;23.38;;
65896;SDS011;52677;50.898;10.854;2024-01-11T01:51:29;56.42;;;21.52;;
65896;SDS011;52677;50.898;10.854;2024-01-11T01:53:31;71.55;;;22.83;;
65896;SDS011;52677;50.898;10.854;2024-01-11T01:55:32;53.10;;;22.35;;
65896;SDS011;52677;50.898;10.854;2024-01-11T01:57:32;58.60;;;23.17;;
65896;SDS011;52677;50.898;10.854;2024-01-11T01:59:34;53.85;;;20.95;;
65896;SDS011;52677;50.898;10.854;2024-01-11T02:01:35;66.13;;;22.33;;
65896;SDS011;52677;50.898;10.854;2024-01-11T02:03:35;45.33;;;20.13;;
65896;SDS011;52677;50.898;10.854;2024-01-11T02:05:36;53.47;;;20.95;;
65896;SDS011;52677;50.898;10.854;2024-01-11T02:07:37;48.20;;;20.20;;
65896;SDS011;52677;50.898;10.854;2024-01-11T02:09:37;54.30;;;20.30;;
65896;SDS011;52677;50.898;10.854;2024-01-11T02:11:38;53.70;;;21.33;;
65896;SDS011;52677;50.898;10.854;2024-01-11T02:13:40;60.78;;;22.45;;
65896;SDS011;52677;50.898;10.854;2024-01-11T02:15:41;60.90;;;22.27;;
65896;SDS011;52677;50.898;10.854;2024-01-11T02:17:41;54.67;;;21.08;;
65896;SDS011;52677;50.898;10.854;2024-01-11T02:19:42;55.42;;;22.67;;
65896;SDS011;52677;50.898;10.854;2024-01-11T02:21:42;71.60;;;23.05;;
65896;SDS011;52677;50.898;10.854;2024-01-11T02:23:44;61.37;;;24.20;;
65896;SDS011;52677;50.898;10.854;2024-01-11T02:26:18;60.78;;;22.50;;
65896;SDS011;52677;50.898;10.854;2024-01-11T02:28:19;58.75;;;21.50;;
65896;SDS011;52677;50.898;10.854;2024-01-11T02:30:19;54.22;;;21.23;;
65896;SDS011;52677;50.898;10.854;2024-01-11T02:32:19;63.95;;;25.02;;
65896;SDS011;52677;50.898;10.854;2024-01-11T02:34:20;69.47;;;23.13;;
65896;SDS011;52677;50.898;10.854;2024-01-11T02:36:21;53.08;;;21.95;;
65896;SDS011;52677;50.898;10.854;2024-01-11T02:38:21;57.35;;;21.83;;
65896;SDS011;52677;50.898;10.854;2024-01-11T02:40:22;68.95;;;25.45;;
65896;SDS011;52677;50.898;10.854;2024-01-11T02:42:22;64.47;;;23.88;;
65896;SDS011;52677;50.898;10.854;2024-01-11T02:44:23;56.03;;;21.63;;
65896;SDS011;52677;50.898;10.854;2024-01-11T02:46:23;58.58;;;22.50;;
65896;SDS011;52677;50.898;10.854;2024-01-11T02:48:27;54.38;;;22.92;;
65896;SDS011;52677;50.898;10.854;2024-01-11T02:50:28;60.05;;;21.95;;
65896;SDS011;52677;50.898;10.854;2024-01-11T02:52:28;73.65;;;23.52;;
65896;SDS011;52677;50.898;10.854;2024-01-11T02:54:29;60.10;;;23.15;;
65896;SDS011;52677;50.898;10.854;2024-01-11T02:56:29;72.80;;;23.92;;
65896;SDS011;52677;50.898;10.854;2024-01-11T02:58:29;60.00;;;23.92;;
65896;SDS011;52677;50.898;10.854;2024-01-11T03:00:30;62.03;;;23.15;;
65896;SDS011;52677;50.898;10.854;2024-01-11T03:02:30;68.93;;;23.77;;
65896;SDS011;52677;50.898;10.854;2024-01-11T03:04:30;52.20;;;23.73;;
65896;SDS011;52677;50.898;10.854;2024-01-11T03:06:31;54.50;;;22.50;;
65896;SDS011;52677;50.898;10.854;2024-01-11T03:08:31;64.32;;;21.90;;
65896;SDS011;52677;50.898;10.854;2024-01-11T03:10:31;45.83;;;20.88;;
65896;SDS011;52677;50.898;10.854;2024-01-11T03:12:31;55.45;;;22.23;;
65896;SDS011;52677;50.898;10.854;2024-01-11T03:14:32;61.78;;;24.85;;
65896;SDS011;52677;50.898;10.854;2024-01-11T03:16:32;60.55;;;22.65;;
65896;SDS011;52677;50.898;10.854;2024-01-11T03:18:32;54.55;;;22.05;;
65896;SDS011;52677;50.898;10.854;2024-01-11T03:20:33;49.28;;;22.48;;
65896;SDS011;52677;50.898;10.854;2024-01-11T03:22:33;54.50;;;22.08;;
65896;SDS011;52677;50.898;10.854;2024-01-11T03:24:37;61.22;;;21.67;;
65896;SDS011;52677;50.898;10.854;2024-01-11T03:26:40;54.63;;;22.67;;
65896;SDS011;52677;50.898;10.854;2024-01-11T03:28:40;57.60;;;21.90;;
65896;SDS011;52677;50.898;10.854;2024-01-11T03:30:41;61.40;;;23.98;;
65896;SDS011;52677;50.898;10.854;2024-01-11T03:32:41;54.35;;;22.25;;
65896;SDS011;52677;50.898;10.854;2024-01-11T03:34:41;54.58;;;21.33;;
65896;SDS011;52677;50.898;10.854;2024-01-11T03:36:42;55.50;;;22.05;;
65896;SDS011;52677;50.898;10.854;2024-01-11T03:38:42;48.40;;;20.90;;
65896;SDS011;52677;50.898;10.854;2024-01-11T03:40:42;58.53;;;22.25;;
65896;SDS011;52677;50.898;10.854;2024-01-11T03:42:43;43.05;;;17.27;;
65896;SDS011;52677;50.898;10.854;2024-01-11T03:44:44;64.82;;;23.30;;
65896;SDS011;52677;50.898;10.854;2024-01-11T03:46:44;65.75;;;23.80;;
65896;SDS011;52677;50.898;10.854;2024-01-11T03:48:44;48.60;;;20.38;;
65896;SDS011;52677;50.898;10.854;2024-01-11T03:50:44;58.67;;;20.73;;
65896;SDS011;52677;50.898;10.854;2024-01-11T03:52:45;47.80;;;20.17;;
65896;SDS011;52677;50.898;10.854;2024-01-11T03:54:45;71.53;;;24.85;;
65896;SDS011;52677;50.898;10.854;2024-01-11T03:56:45;61.22;;;24.10;;
65896;SDS011;52677;50.898;10.854;2024-01-11T03:58:46;60.55;;;21.98;;
65896;SDS011;52677;50.898;10.854;2024-01-11T04:00:46;67.97;;;25.77;;
65896;SDS011;52677;50.898;10.854;2024-01-11T04:02:46;75.97;;;27.00;;
65896;SDS011;52677;50.898;10.854;2024-01-11T04:04:47;66.15;;;25.90;;
65896;SDS011;52677;50.898;10.854;2024-01-11T04:06:48;55.20;;;22.85;;
65896;SDS011;52677;50.898;10.854;2024-01-11T04:08:48;52.47;;;21.33;;
65896;SDS011;52677;50.898;10.854;2024-01-11T04:10:48;64.22;;;24.02;;
65896;SDS011;52677;50.898;10.854;2024-01-11T04:12:49;61.05;;;25.60;;
65896;SDS011;52677;50.898;10.854;2024-01-11T04:14:49;66.22;;;23.58;;
65896;SDS011;52677;50.898;10.854;2024-01-11T04:16:49;66.95;;;26.70;;
65896;SDS011;52677;50.898;10.854;2024-01-11T04:18:50;56.20;;;24.23;;
65896;SDS011;52677;50.898;10.854;2024-01-11T04:20:50;60.25;;;24.90;;
65896;SDS011;52677;50.898;10.854;2024-01-11T04:22:50;58.15;;;23.83;;
65896;SDS011;52677;50.898;10.854;2024-01-11T04:24:51;49.90;;;21.42;;
65896;SDS011;52677;50.898;10.854;2024-01-11T04:26:51;65.60;;;23.98;;
65896;SDS011;52677;50.898;10.854;2024-01-11T04:28:52;54.35;;;24.15;;
65896;SDS011;52677;50.898;10.854;2024-01-11T04:30:53;52.63;;;22.27;;
65896;SDS011;52677;50.898;10.854;2024-01-11T04:32:53;62.83;;;26.02;;
65896;SDS011;52677;50.898;10.854;2024-01-11T04:34:53;63.30;;;24.85;;
65896;SDS011;52677;50.898;10.854;2024-01-11T04:36:53;60.50;;;23.73;;
65896;SDS011;52677;50.898;10.854;2024-01-11T04:38:54;59.35;;;22.25;;
65896;SDS011;52677;50.898;10.854;2024-01-11T04:40:54;54.08;;;22.35;;
65896;SDS011;52677;50.898;10.854;2024-01-11T04:42:54;52.45;;;20.83;;
65896;SDS011;52677;50.898;10.854;2024-01-11T04:44:55;59.33;;;21.92;;
65896;SDS011;52677;50.898;10.854;2024-01-11T04:46:55;57.33;;;24.00;;
65896;SDS011;52677;50.898;10.854;2024-01-11T04:48:55;73.32;;;24.83;;
65896;SDS011;52677;50.898;10.854;2024-01-11T04:50:56;71.18;;;25.55;;
65896;SDS011;52677;50.898;10.854;2024-01-11T04:52:56;56.40;;;23.27;;
65896;SDS011;52677;50.898;10.854;2024-01-11T04:54:56;60.05;;;24.35;;
65896;SDS011;52677;50.898;10.854;2024-01-11T04:56:57;57.72;;;21.70;;
65896;SDS011;52677;50.898;10.854;2024-01-11T04:58:57;62.17;;;21.58;;
65896;SDS011;52677;50.898;10.854;2024-01-11T05:00:58;51.58;;;21.70;;
65896;SDS011;52677;50.898;10.854;2024-01-11T05:02:59;56.05;;;22.27;;
65896;SDS011;52677;50.898;10.854;2024-01-11T05:05:00;61.67;;;23.88;;
65896;SDS011;52677;50.898;10.854;2024-01-11T05:07:00;81.85;;;25.98;;
65896;SDS011;52677;50.898;10.854;2024-01-11T05:09:01;62.17;;;24.92;;
65896;SDS011;52677;50.898;10.854;2024-01-11T05:11:01;63.00;;;23.05;;
65896;SDS011;52677;50.898;10.854;2024-01-11T05:13:02;62.83;;;22.80;;
65896;SDS011;52677;50.898;10.854;2024-01-11T05:15:02;53.85;;;20.40;;
65896;SDS011;52677;50.898;10.854;2024-01-11T05:17:03;65.05;;;25.73;;
65896;SDS011;52677;50.898;10.854;2024-01-11T05:19:03;65.32;;;24.52;;
65896;SDS011;52677;50.898;10.854;2024-01-11T05:21:04;52.38;;;20.27;;
65896;SDS011;52677;50.898;10.854;2024-01-11T05:23:04;45.70;;;18.52;;
65896;SDS011;52677;50.898;10.854;2024-01-11T05:25:05;48.22;;;18.73;;
65896;SDS011;52677;50.898;10.854;2024-01-11T05:27:05;52.10;;;20.08;;
65896;SDS011;52677;50.898;10.854;2024-01-11T05:29:06;53.88;;;21.13;;
65896;SDS011;52677;50.898;10.854;2024-01-11T05:31:08;67.32;;;24.17;;
65896;SDS011;52677;50.898;10.854;2024-01-11T05:33:12;61.92;;;21.58;;
65896;SDS011;52677;50.898;10.854;2024-01-11T05:35:13;51.13;;;23.52;;
65896;SDS011;52677;50.898;10.854;2024-01-11T05:37:13;58.78;;;21.35;;
65896;SDS011;52677;50.898;10.854;2024-01-11T05:39:14;49.20;;;21.70;;
65896;SDS011;52677;50.898;10.854;2024-01-11T05:41:14;58.85;;;24.35;;
65896;SDS011;52677;50.898;10.854;2024-01-11T05:43:15;47.70;;;20.70;;
65896;SDS011;52677;50.898;10.854;2024-01-11T05:45:15;47.25;;;19.77;;
65896;SDS011;52677;50.898;10.854;2024-01-11T05:47:18;57.60;;;20.88;;
65896;SDS011;52677;50.898;10.854;2024-01-11T05:49:18;50.50;;;20.48;;
65896;SDS011;52677;50.898;10.854;2024-01-11T05:51:19;59.33;;;23.55;;
65896;SDS011;52677;50.898;10.854;2024-01-11T05:53:19;58.80;;;23.33;;
65896;SDS011;52677;50.898;10.854;2024-01-11T05:55:20;55.60;;;21.08;;
65896;SDS011;52677;50.898;10.854;2024-01-11T05:57:21;51.22;;;20.23;;
65896;SDS011;52677;50.898;10.854;2024-01-11T05:59:22;65.80;;;22.88;;
65896;SDS011;52677;50.898;10.854;2024-01-11T06:01:22;56.35;;;23.98;;
65896;SDS011;52677;50.898;10.854;2024-01-11T06:03:22;54.15;;;22.13;;
65896;SDS011;52677;50.898;10.854;2024-01-11T06:05:23;59.40;;;22.52;;
65896;SDS011;52677;50.898;10.854;2024-01-11T06:07:23;51.08;;;22.83;;
65896;SDS011;52677;50.898;10.854;2024-01-11T06:09:23;61.60;;;23.33;;
65896;SDS011;52677;50.898;10.854;2024-01-11T06:11:24;54.90;;;23.20;;
65896;SDS011;52677;50.898;10.854;2024-01-11T06:13:24;63.23;;;24.37;;
65896;SDS011;52677;50.898;10.854;2024-01-11T06:15:24;71.57;;;24.60;;
65896;SDS011;52677;50.898;10.854;2024-01-11T06:17:25;50.95;;;21.45;;
65896;SDS011;52677;50.898;10.854;2024-01-11T06:19:25;59.33;;;22.17;;
65896;SDS011;52677;50.898;10.854;2024-01-11T06:21:25;55.65;;;21.67;;
65896;SDS011;52677;50.898;10.854;2024-01-11T06:23:26;57.78;;;21.73;;
65896;SDS011;52677;50.898;10.854;2024-01-11T06:25:26;60.90;;;24.05;;
65896;SDS011;52677;50.898;10.854;2024-01-11T06:27:26;55.20;;;21.90;;
65896;SDS011;52677;50.898;10.854;2024-01-11T06:29:27;58.63;;;22.48;;
65896;SDS011;52677;50.898;10.854;2024-01-11T06:31:28;54.47;;;20.80;;
65896;SDS011;52677;50.898;10.854;2024-01-11T06:33:28;51.50;;;20.25;;
65896;SDS011;52677;50.898;10.854;2024-01-11T06:35:29;56.65;;;20.63;;
65896;SDS011;52677;50.898;10.854;2024-01-11T06:37:29;50.85;;;20.70;;
65896;SDS011;52677;50.898;10.854;2024-01-11T06:39:29;50.03;;;22.00;;
65896;SDS011;52677;50.898;10.854;2024-01-11T06:41:30;45.55;;;19.17;;
65896;SDS011;52677;50.898;10.854;2024-01-11T06:43:31;63.08;;;21.73;;
65896;SDS011;52677;50.898;10.854;2024-01-11T06:45:31;56.38;;;23.05;;
65896;SDS011;52677;50.898;10.854;2024-01-11T06:47:32;54.97;;;20.30;;
65896;SDS011;52677;50.898;10.854;2024-01-11T06:49:32;62.28;;;21.33;;
65896;SDS011;52677;50.898;10.854;2024-01-11T06:51:33;52.38;;;20.92;;
65896;SDS011;52677;50.898;10.854;2024-01-11T06:53:33;67.90;;;23.55;;
65896;SDS011;52677;50.898;10.854;2024-01-11T06:55:36;62.50;;;22.50;;
65896;SDS011;52677;50.898;10.854;2024-01-11T06:57:36;52.95;;;24.30;;
65896;SDS011;52677;50.898;10.854;2024-01-11T06:59:37;57.08;;;22.55;;
65896;SDS011;52677;50.898;10.854;2024-01-11T07:01:37;65.90;;;23.08;;
65896;SDS011;52677;50.898;10.854;2024-01-11T07:03:38;64.45;;;26.83;;
65896;SDS011;52677;50.898;10.854;2024-01-11T07:05:39;67.35;;;25.30;;
65896;SDS011;52677;50.898;10.854;2024-01-11T07:07:39;60.30;;;22.70;;
65896;SDS011;52677;50.898;10.854;2024-01-11T07:09:40;58.50;;;23.30;;
65896;SDS011;52677;50.898;10.854;2024-01-11T07:11:40;57.15;;;20.48;;
65896;SDS011;52677;50.898;10.854;2024-01-11T07:13:40;56.05;;;22.95;;
65896;SDS011;52677;50.898;10.854;2024-01-11T07:15:40;63.17;;;22.23;;
65896;SDS011;52677;50.898;10.854;2024-01-11T07:17:41;55.72;;;22.55;;
65896;SDS011;52677;50.898;10.854;2024-01-11T07:19:41;57.17;;;22.95;;
65896;SDS011;52677;50.898;10.854;2024-01-11T07:21:41;62.70;;;24.73;;
65896;SDS011;52677;50.898;10.854;2024-01-11T07:23:42;66.15;;;24.80;;
65896;SDS011;52677;50.898;10.854;2024-01-11T07:25:42;61.78;;;23.13;;
65896;SDS011;52677;50.898;10.854;2024-01-11T07:27:43;57.25;;;23.83;;
65896;SDS011;52677;50.898;10.854;2024-01-11T07:29:43;66.55;;;26.08;;
65896;SDS011;52677;50.898;10.854;2024-01-11T07:31:43;61.83;;;25.15;;
65896;SDS011;52677;50.898;10.854;2024-01-11T07:33:44;61.58;;;24.60;;
65896;SDS011;52677;50.898;10.854;2024-01-11T07:35:44;62.45;;;25.05;;
65896;SDS011;52677;50.898;10.854;2024-01-11T07:37:45;57.42;;;24.35;;
65896;SDS011;52677;50.898;10.854;2024-01-11T07:39:46;62.33;;;26.27;;
65896;SDS011;52677;50.898;10.854;2024-01-11T07:41:46;66.78;;;28.42;;
65896;SDS011;52677;50.898;10.854;2024-01-11T07:43:46;67.15;;;25.00;;
65896;SDS011;52677;50.898;10.854;2024-01-11T07:45:47;71.50;;;26.27;;
65896;SDS011;52677;50.898;10.854;2024-01-11T07:47:47;51.92;;;23.05;;
65896;SDS011;52677;50.898;10.854;2024-01-11T07:49:48;63.80;;;23.85;;
65896;SDS011;52677;50.898;10.854;2024-01-11T07:51:48;54.28;;;23.48;;
65896;SDS011;52677;50.898;10.854;2024-01-11T07:53:48;55.85;;;22.58;;
65896;SDS011;52677;50.898;10.854;2024-01-11T07:55:49;57.72;;;23.13;;
65896;SDS011;52677;50.898;10.854;2024-01-11T07:57:49;57.03;;;23.45;;
65896;SDS011;52677;50.898;10.854;2024-01-11T07:59:50;59.40;;;23.15;;
65896;SDS011;52677;50.898;10.854;2024-01-11T08:01:50;59.20;;;22.52;;
65896;SDS011;52677;50.898;10.854;2024-01-11T08:03:52;58.83;;;22.17;;
65896;SDS011;52677;50.898;10.854;2024-01-11T08:05:52;52.65;;;21.65;;
65896;SDS011;52677;50.898;10.854;2024-01-11T08:07:53;59.88;;;23.08;;
65896;SDS011;52677;50.898;10.854;2024-01-11T08:09:53;59.85;;;22.60;;
65896;SDS011;52677;50.898;10.854;2024-01-11T08:11:54;59.47;;;21.45;;
65896;SDS011;52677;50.898;10.854;2024-01-11T08:13:54;49.80;;;21.60;;
65896;SDS011;52677;50.898;10.854;2024-01-11T08:15:55;62.00;;;24.33;;
65896;SDS011;52677;50.898;10.854;2024-01-11T08:17:55;62.03;;;22.75;;
65896;SDS011;52677;50.898;10.854;2024-01-11T08:19:55;53.88;;;21.40;;
65896;SDS011;52677;50.898;10.854;2024-01-11T08:21:56;61.97;;;22.42;;
65896;SDS011;52677;50.898;10.854;2024-01-11T08:23:56;64.47;;;25.38;;
65896;SDS011;52677;50.898;10.854;2024-01-11T08:25:57;63.55;;;26.05;;
65896;SDS011;52677;50.898;10.854;2024-01-11T08:27:57;81.80;;;29.05;;
65896;SDS011;52677;50.898;10.854;2024-01-11T08:29:57;65.65;;;25.00;;
65896;SDS011;52677;50.898;10.854;2024-01-11T08:31:58;55.25;;;23.23;;
65896;SDS011;52677;50.898;10.854;2024-01-11T08:33:58;61.38;;;26.85;;
65896;SDS011;52677;50.898;10.854;2024-01-11T08:35:58;58.58;;;23.77;;
65896;SDS011;52677;50.898;10.854;2024-01-11T08:37:59;56.83;;;23.13;;
65896;SDS011;52677;50.898;10.854;2024-01-11T08:39:59;62.33;;;23.73;;
65896;SDS011;52677;50.898;10.854;2024-01-11T08:41:59;86.63;;;32.47;;
65896;SDS011;52677;50.898;10.854;2024-01-11T08:44:00;76.45;;;28.30;;
65896;SDS011;52677;50.898;10.854;2024-01-11T08:46:01;65.53;;;26.25;;
65896;SDS011;52677;50.898;10.854;2024-01-11T08:48:02;63.65;;;26.85;;
65896;SDS011;52677;50.898;10.854;2024-01-11T08:50:02;74.03;;;27.00;;
65896;SDS011;52677;50.898;10.854;2024-01-11T08:52:06;79.57;;;27.55;;
65896;SDS011;52677;50.898;10.854;2024-01-11T08:54:07;78.87;;;28.53;;
65896;SDS011;52677;50.898;10.854;2024-01-11T08:56:09;78.85;;;29.83;;
65896;SDS011;52677;50.898;10.854;2024-01-11T08:58:09;70.68;;;26.92;;
65896;SDS011;52677;50.898;10.854;2024-01-11T09:00:10;65.10;;;27.15;;
65896;SDS011;52677;50.898;10.854;2024-01-11T09:02:11;72.55;;;29.02;;
65896;SDS011;52677;50.898;10.854;2024-01-11T09:04:11;66.50;;;25.80;;
65896;SDS011;52677;50.898;10.854;2024-01-11T09:06:13;78.32;;;28.08;;
65896;SDS011;52677;50.898;10.854;2024-01-11T09:08:13;75.93;;;29.23;;
65896;SDS011;52677;50.898;10.854;2024-01-11T09:10:14;66.95;;;27.02;;
65896;SDS011;52677;50.898;10.854;2024-01-11T09:12:14;61.95;;;26.02;;
65896;SDS011;52677;50.898;10.854;2024-01-11T09:14:14;62.38;;;25.55;;
65896;SDS011;52677;50.898;10.854;2024-01-11T09:16:15;59.38;;;24.67;;
65896;SDS011;52677;50.898;10.854;2024-01-11T09:18:16;64.80;;;24.23;;
65896;SDS011;52677;50.898;10.854;2024-01-11T09:20:17;66.45;;;26.42;;
65896;SDS011;52677;50.898;10.854;2024-01-11T09:22:18;59.78;;;24.23;;
65896;SDS011;52677;50.898;10.854;2024-01-11T09:24:18;65.80;;;26.10;;
65896;SDS011;52677;50.898;10.854;2024-01-11T09:26:19;56.58;;;25.00;;
65896;SDS011;52677;50.898;10.854;2024-01-11T09:28:19;62.22;;;24.38;;
65896;SDS011;52677;50.898;10.854;2024-01-11T09:30:20;63.53;;;24.38;;
65896;SDS011;52677;50.898;10.854;2024-01-11T09:32:20;58.38;;;24.30;;
65896;SDS011;52677;50.898;10.854;2024-01-11T09:34:20;69.03;;;26.38;;
65896;SDS011;52677;50.898;10.854;2024-01-11T09:36:20;64.35;;;24.58;;
65896;SDS011;52677;50.898;10.854;2024-01-11T09:38:21;58.75;;;23.88;;
65896;SDS011;52677;50.898;10.854;2024-01-11T09:40:23;57.42;;;23.63;;
65896;SDS011;52677;50.898;10.854;2024-01-11T09:42:23;62.70;;;24.92;;
65896;SDS011;52677;50.898;10.854;2024-01-11T09:44:24;60.40;;;23.95;;
65896;SDS011;52677;50.898;10.854;2024-01-11T09:46:25;67.38;;;25.25;;
65896;SDS011;52677;50.898;10.854;2024-01-11T09:48:28;72.32;;;25.02;;
65896;SDS011;52677;50.898;10.854;2024-01-11T09:50:29;62.30;;;24.05;;
65896;SDS011;52677;50.898;10.854;2024-01-11T09:52:29;65.00;;;25.52;;
65896;SDS011;52677;50.898;10.854;2024-01-11T09:54:33;60.53;;;25.77;;
65896;SDS011;52677;50.898;10.854;2024-01-11T09:56:33;59.60;;;25.70;;
65896;SDS011;52677;50.898;10.854;2024-01-11T09:58:35;58.42;;;24.25;;
65896;SDS011;52677;50.898;10.854;2024-01-11T10:00:39;57.25;;;25.45;;
65896;SDS011;52677;50.898;10.854;2024-01-11T10:02:40;55.53;;;25.65;;
65896;SDS011;52677;50.898;10.854;2024-01-11T10:04:42;72.55;;;26.52;;
65896;SDS011;52677;50.898;10.854;2024-01-11T10:06:43;58.90;;;23.88;;
65896;SDS011;52677;50.898;10.854;2024-01-11T10:08:43;55.17;;;23.30;;
65896;SDS011;52677;50.898;10.854;2024-01-11T10:10:44;60.53;;;24.48;;
65896;SDS011;52677;50.898;10.854;2024-01-11T10:12:44;62.40;;;26.23;;
65896;SDS011;52677;50.898;10.854;2024-01-11T10:14:45;57.90;;;23.42;;
65896;SDS011;52677;50.898;10.854;2024-01-11T10:16:45;62.97;;;24.23;;
65896;SDS011;52677;50.898;10.854;2024-01-11T10:18:45;66.60;;;24.77;;
65896;SDS011;52677;50.898;10.854;2024-01-11T10:20:46;58.10;;;22.38;;
65896;SDS011;52677;50.898;10.854;2024-01-11T10:22:48;66.47;;;28.95;;
65896;SDS011;52677;50.898;10.854;2024-01-11T10:24:49;70.28;;;29.45;;
65896;SDS011;52677;50.898;10.854;2024-01-11T10:26:49;68.97;;;29.08;;
65896;SDS011;52677;50.898;10.854;2024-01-11T10:28:51;69.10;;;27.48;;
65896;SDS011;52677;50.898;10.854;2024-01-11T10:30:51;58.90;;;25.40;;
65896;SDS011;52677;50.898;10.854;2024-01-11T10:32:54;56.00;;;23.10;;
65896;SDS011;52677;50.898;10.854;2024-01-11T10:34:57;65.75;;;24.27;;
65896;SDS011;52677;50.898;10.854;2024-01-11T10:36:57;81.57;;;31.38;;
65896;SDS011;52677;50.898;10.854;2024-01-11T10:38:59;87.30;;;31.05;;
65896;SDS011;52677;50.898;10.854;2024-01-11T10:41:05;58.05;;;25.13;;
65896;SDS011;52677;50.898;10.854;2024-01-11T10:43:06;57.55;;;24.15;;
65896;SDS011;52677;50.898;10.854;2024-01-11T10:45:15;60.35;;;23.48;;
65896;SDS011;52677;50.898;10.854;2024-01-11T10:47:19;54.83;;;21.65;;
65896;SDS011;52677;50.898;10.854;2024-01-11T10:49:21;54.45;;;23.92;;
65896;SDS011;52677;50.898;10.854;2024-01-11T10:51:25;53.00;;;23.20;;
65896;SDS011;52677;50.898;10.854;2024-01-11T10:53:31;56.63;;;21.75;;
65896;SDS011;52677;50.898;10.854;2024-01-11T10:55:47;52.40;;;21.85;;
65896;SDS011;52677;50.898;10.854;2024-01-11T10:57:49;44.20;;;19.40;;
65896;SDS011;52677;50.898;10.854;2024-01-11T10:59:51;57.88;;;24.13;;
65896;SDS011;52677;50.898;10.854;2024-01-11T11:03:56;47.70;;;19.98;;
65896;SDS011;52677;50.898;10.854;2024-01-11T11:05:58;54.53;;;22.52;;
65896;SDS011;52677;50.898;10.854;2024-01-11T11:07:59;52.33;;;21.67;;
65896;SDS011;52677;50.898;10.854;2024-01-11T11:10:01;59.28;;;22.55;;
65896;SDS011;52677;50.898;10.854;2024-01-11T11:12:04;52.90;;;22.85;;
65896;SDS011;52677;50.898;10.854;2024-01-11T11:14:06;59.08;;;26.48;;
65896;SDS011;52677;50.898;10.854;2024-01-11T11:16:07;60.20;;;24.13;;
65896;SDS011;52677;50.898;10.854;2024-01-11T11:18:08;64.15;;;28.30;;
65896;SDS011;52677;50.898;10.854;2024-01-11T11:20:10;62.17;;;28.05;;
65896;SDS011;52677;50.898;10.854;2024-01-11T11:22:13;62.25;;;25.48;;
65896;SDS011;52677;50.898;10.854;2024-01-11T11:24:16;67.32;;;25.08;;
65896;SDS011;52677;50.898;10.854;2024-01-11T11:26:17;58.20;;;25.63;;
65896;SDS011;52677;50.898;10.854;2024-01-11T11:28:17;76.47;;;32.88;;
65896;SDS011;52677;50.898;10.854;2024-01-11T11:30:20;70.65;;;32.15;;
65896;SDS011;52677;50.898;10.854;2024-01-11T11:32:34;73.15;;;31.33;;
65896;SDS011;52677;50.898;10.854;2024-01-11T11:34:41;61.40;;;27.75;;
65896;SDS011;52677;50.898;10.854;2024-01-11T11:36:45;66.82;;;28.83;;
65896;SDS011;52677;50.898;10.854;2024-01-11T11:40:47;50.67;;;23.33;;